Time;durP1;ratioP1;P1;durP2;ratioP2;P2;SDS_P1;SDS_P2;PMS_P1;PMS_P2;Temp;Humidity;BMP_temperature;BMP_pressure;BME280_temperature;BME280_humidity;BME280_pressure;Samples;Min_cycle;Max_cycle;Signal;HPM_P1;HPM_P2
2023/07/02 00:00:55;;;;;;;3.33;2.50;;;;;;;;;;4923934;29;20031;-88
2023/07/02 00:03:21;;;;;;;3.95;2.70;;;;;;;;;;4929235;29;20019;-88
2023/07/02 00:05:49;;;;;;;4.43;2.63;;;;;;;;;;4949353;29;20479;-88
2023/07/02 00:08:15;;;;;;;3.72;2.60;;;;;;;;;;4953731;29;20394;-88
2023/07/02 00:10:40;;;;;;;3.10;2.50;;;;;;;;;;4936287;29;20490;-88
2023/07/02 00:13:06;;;;;;;3.50;2.58;;;;;;;;;;4949058;29;20540;-88
2023/07/02 00:15:31;;;;;;;4.07;2.40;;;;;;;;;;4934765;29;20106;-87
2023/07/02 00:17:57;;;;;;;3.60;2.65;;;;;;;;;;4934562;29;20416;-88
2023/07/02 00:20:22;;;;;;;4.13;2.50;;;;;;;;;;4920148;29;20058;-88
2023/07/02 00:22:49;;;;;;;4.60;2.58;;;;;;;;;;4916051;29;20024;-88
2023/07/02 00:25:15;;;;;;;3.22;2.58;;;;;;;;;;4933137;29;20067;-88
2023/07/02 00:27:40;;;;;;;2.90;2.60;;;;;;;;;;4928912;29;20066;-87
2023/07/02 00:30:06;;;;;;;5.32;2.70;;;;;;;;;;4934371;29;20035;-87
2023/07/02 00:32:32;;;;;;;2.75;2.05;;;;;;;;;;4934912;29;20023;-86
2023/07/02 00:34:58;;;;;;;4.45;2.60;;;;;;;;;;4913574;29;20043;-86
2023/07/02 00:37:24;;;;;;;2.80;2.50;;;;;;;;;;4928644;29;20034;-86
2023/07/02 00:39:49;;;;;;;4.28;2.50;;;;;;;;;;4916163;29;20483;-87
2023/07/02 00:42:14;;;;;;;4.80;2.80;;;;;;;;;;4934845;29;20027;-87
2023/07/02 00:44:41;;;;;;;3.40;2.63;;;;;;;;;;4916560;29;20051;-87
2023/07/02 00:47:12;;;;;;;3.40;2.63;;;;;;;;;;4933869;29;20183;-87
2023/07/02 00:49:39;;;;;;;4.75;2.47;;;;;;;;;;4933388;29;20020;-87
2023/07/02 00:52:05;;;;;;;3.15;2.63;;;;;;;;;;4932121;29;20050;-87
2023/07/02 00:54:31;;;;;;;2.83;2.22;;;;;;;;;;4928570;29;20027;-87
2023/07/02 00:56:57;;;;;;;7.43;2.28;;;;;;;;;;4932700;29;20051;-86
2023/07/02 00:59:23;;;;;;;6.07;2.80;;;;;;;;;;4931795;29;20115;-87
2023/07/02 01:01:49;;;;;;;2.88;2.35;;;;;;;;;;4935222;29;20110;-87
2023/07/02 01:04:17;;;;;;;2.67;2.20;;;;;;;;;;4927733;29;20062;-87
2023/07/02 01:06:43;;;;;;;3.72;2.67;;;;;;;;;;4937353;29;20447;-87
2023/07/02 01:09:09;;;;;;;3.70;2.50;;;;;;;;;;4920375;29;20027;-87
2023/07/02 01:11:38;;;;;;;3.15;2.22;;;;;;;;;;4926030;29;20036;-87
2023/07/02 01:14:09;;;;;;;4.18;2.63;;;;;;;;;;4937867;28;20047;-87
2023/07/02 01:16:35;;;;;;;2.65;2.38;;;;;;;;;;4935207;29;20028;-87
2023/07/02 01:19:07;;;;;;;2.58;2.28;;;;;;;;;;4920045;29;20039;-87
2023/07/02 01:21:33;;;;;;;2.97;2.25;;;;;;;;;;4938068;29;20039;-87
2023/07/02 01:24:03;;;;;;;4.13;2.03;;;;;;;;;;4926298;29;20028;-87
2023/07/02 01:26:36;;;;;;;5.00;2.35;;;;;;;;;;4936732;29;20023;-87
2023/07/02 01:29:19;;;;;;;5.30;2.20;;;;;;;;;;4937708;29;20427;-86
2023/07/02 01:31:45;;;;;;;3.97;2.22;;;;;;;;;;4935705;29;20032;-87
2023/07/02 01:34:11;;;;;;;5.38;2.28;;;;;;;;;;4937939;29;20047;-87
2023/07/02 01:36:37;;;;;;;3.05;2.30;;;;;;;;;;4936518;29;20130;-86
2023/07/02 01:39:03;;;;;;;3.08;2.05;;;;;;;;;;4922220;29;20083;-87
2023/07/02 01:41:28;;;;;;;3.58;2.10;;;;;;;;;;4927398;29;20047;-87
2023/07/02 01:43:54;;;;;;;5.80;2.60;;;;;;;;;;4922664;29;20047;-87
2023/07/02 01:46:19;;;;;;;2.55;2.08;;;;;;;;;;4938259;29;20094;-87
2023/07/02 01:48:45;;;;;;;3.42;2.00;;;;;;;;;;4931221;29;20031;-87
2023/07/02 01:51:10;;;;;;;3.75;2.05;;;;;;;;;;4938064;29;20488;-87
2023/07/02 01:53:35;;;;;;;3.92;2.28;;;;;;;;;;4939248;29;20463;-86
2023/07/02 01:56:01;;;;;;;2.58;2.08;;;;;;;;;;4926346;29;20031;-87
2023/07/02 01:58:26;;;;;;;5.90;2.30;;;;;;;;;;4935668;29;20038;-87
2023/07/02 02:00:52;;;;;;;3.30;2.20;;;;;;;;;;4936451;29;20019;-87
2023/07/02 02:03:17;;;;;;;2.92;2.25;;;;;;;;;;4919595;29;20161;-87
2023/07/02 02:05:42;;;;;;;3.97;2.22;;;;;;;;;;4934609;29;20039;-87
2023/07/02 02:08:08;;;;;;;3.10;2.40;;;;;;;;;;4947851;29;20028;-87
2023/07/02 02:10:33;;;;;;;2.65;2.30;;;;;;;;;;4936684;29;20480;-87
2023/07/02 02:12:59;;;;;;;5.03;2.30;;;;;;;;;;4936843;29;20023;-87
2023/07/02 02:15:24;;;;;;;2.75;2.20;;;;;;;;;;4936619;29;20106;-88
2023/07/02 02:17:50;;;;;;;5.20;2.40;;;;;;;;;;4936150;29;20087;-87
2023/07/02 02:20:16;;;;;;;3.35;2.10;;;;;;;;;;4936368;29;20027;-87
2023/07/02 02:22:41;;;;;;;3.38;2.28;;;;;;;;;;4936331;29;20038;-87
2023/07/02 02:25:07;;;;;;;4.30;2.25;;;;;;;;;;4936438;29;20030;-87
2023/07/02 02:27:32;;;;;;;3.75;2.22;;;;;;;;;;4936419;29;20031;-88
2023/07/02 02:29:58;;;;;;;3.25;2.42;;;;;;;;;;4918904;29;20110;-88
2023/07/02 02:32:24;;;;;;;3.50;2.40;;;;;;;;;;4935278;29;20034;-87
2023/07/02 02:34:49;;;;;;;4.78;2.25;;;;;;;;;;4918913;29;20031;-87
2023/07/02 02:37:14;;;;;;;7.75;2.13;;;;;;;;;;4936139;29;20023;-87
2023/07/02 02:39:40;;;;;;;2.97;2.40;;;;;;;;;;4920745;29;20042;-87
2023/07/02 02:42:05;;;;;;;8.05;2.30;;;;;;;;;;4955448;29;20027;-87
2023/07/02 02:44:32;;;;;;;3.85;2.55;;;;;;;;;;4954929;29;20027;-88
2023/07/02 02:46:57;;;;;;;6.90;2.38;;;;;;;;;;4955115;29;20057;-88
2023/07/02 02:49:23;;;;;;;2.70;2.10;;;;;;;;;;4937112;29;20066;-88
2023/07/02 02:51:48;;;;;;;3.13;2.20;;;;;;;;;;4937030;29;20411;-87
2023/07/02 02:54:13;;;;;;;3.60;2.15;;;;;;;;;;4954254;29;20023;-87
2023/07/02 02:56:39;;;;;;;3.08;2.10;;;;;;;;;;4955102;29;20497;-88
2023/07/02 02:59:04;;;;;;;6.22;2.38;;;;;;;;;;4950280;28;20046;-87
2023/07/02 03:01:30;;;;;;;10.02;2.28;;;;;;;;;;4935441;29;20608;-87
2023/07/02 03:03:58;;;;;;;7.28;2.15;;;;;;;;;;4935514;29;20114;-87
2023/07/02 03:06:24;;;;;;;8.80;2.13;;;;;;;;;;4935570;29;20031;-87
2023/07/02 03:08:49;;;;;;;2.92;2.20;;;;;;;;;;4935381;29;20024;-87
2023/07/02 03:11:14;;;;;;;7.38;2.10;;;;;;;;;;4935438;29;20042;-87
2023/07/02 03:13:40;;;;;;;4.93;2.10;;;;;;;;;;4936391;29;20027;-87
2023/07/02 03:16:05;;;;;;;2.65;2.30;;;;;;;;;;4929405;29;20092;-87
2023/07/02 03:18:31;;;;;;;3.90;2.28;;;;;;;;;;4902598;29;20100;-87
2023/07/02 03:20:56;;;;;;;5.03;2.33;;;;;;;;;;4931843;29;20285;-86
2023/07/02 03:23:22;;;;;;;3.83;2.53;;;;;;;;;;4947002;29;20492;-87
2023/07/02 03:25:47;;;;;;;4.43;2.65;;;;;;;;;;4918784;29;20061;-87
2023/07/02 03:28:13;;;;;;;7.68;2.60;;;;;;;;;;4933924;29;20488;-86
2023/07/02 03:30:38;;;;;;;4.15;2.47;;;;;;;;;;4909523;29;20028;-87
2023/07/02 03:33:03;;;;;;;4.68;2.90;;;;;;;;;;4935393;29;20083;-87
2023/07/02 03:35:29;;;;;;;4.50;2.60;;;;;;;;;;4917690;29;20027;-87
2023/07/02 03:37:54;;;;;;;6.93;2.70;;;;;;;;;;4920159;29;20035;-88
2023/07/02 03:40:20;;;;;;;4.50;2.63;;;;;;;;;;4918366;29;20031;-87
2023/07/02 03:42:45;;;;;;;7.35;2.83;;;;;;;;;;4933990;29;20114;-88
2023/07/02 03:45:10;;;;;;;5.70;2.65;;;;;;;;;;4932300;28;20074;-87
2023/07/02 03:47:36;;;;;;;8.05;2.92;;;;;;;;;;4932791;29;20061;-87
2023/07/02 03:50:01;;;;;;;7.40;3.42;;;;;;;;;;4916007;29;20059;-87
2023/07/02 03:52:27;;;;;;;5.78;3.00;;;;;;;;;;4933027;29;20039;-87
2023/07/02 03:54:52;;;;;;;8.85;3.13;;;;;;;;;;4937006;29;20184;-88
2023/07/02 03:57:18;;;;;;;4.95;3.10;;;;;;;;;;4917486;29;20031;-89
2023/07/02 03:59:43;;;;;;;5.25;3.03;;;;;;;;;;4918749;29;20028;-88
2023/07/02 04:02:09;;;;;;;6.38;3.03;;;;;;;;;;4915224;29;20506;-88
2023/07/02 04:04:34;;;;;;;9.75;3.22;;;;;;;;;;4930347;29;20038;-88
2023/07/02 04:06:59;;;;;;;6.75;3.03;;;;;;;;;;4912119;29;20088;-88
2023/07/02 04:09:25;;;;;;;17.10;3.55;;;;;;;;;;4929860;29;20051;-88
2023/07/02 04:11:50;;;;;;;6.43;3.17;;;;;;;;;;4932457;29;20035;-87
2023/07/02 04:14:15;;;;;;;10.85;3.20;;;;;;;;;;4934688;29;20020;-89
2023/07/02 04:16:44;;;;;;;6.03;2.97;;;;;;;;;;4916344;29;20028;-88
2023/07/02 04:19:10;;;;;;;3.92;2.95;;;;;;;;;;4934247;29;20042;-88
2023/07/02 04:21:35;;;;;;;7.05;3.10;;;;;;;;;;4933818;29;20035;-88
2023/07/02 04:24:01;;;;;;;6.80;3.15;;;;;;;;;;4923777;29;20032;-88
2023/07/02 04:26:26;;;;;;;10.15;3.72;;;;;;;;;;4916382;29;20043;-87
2023/07/02 04:28:54;;;;;;;6.88;3.22;;;;;;;;;;4933270;29;20504;-89
2023/07/02 04:31:19;;;;;;;4.40;2.63;;;;;;;;;;4932471;29;20036;-88
2023/07/02 04:33:45;;;;;;;10.52;3.15;;;;;;;;;;4916447;29;20193;-89
2023/07/02 04:36:10;;;;;;;7.50;3.00;;;;;;;;;;4923304;29;20036;-89
2023/07/02 04:38:35;;;;;;;5.72;3.05;;;;;;;;;;4907663;29;20388;-89
2023/07/02 04:41:04;;;;;;;8.88;3.20;;;;;;;;;;4932782;29;20076;-88
2023/07/02 04:43:33;;;;;;;4.93;2.90;;;;;;;;;;4935076;29;20090;-89
2023/07/02 04:45:59;;;;;;;9.00;2.65;;;;;;;;;;4915917;29;21628;-89
2023/07/02 04:48:24;;;;;;;5.45;2.80;;;;;;;;;;4917125;29;20024;-89
2023/07/02 04:50:50;;;;;;;8.48;2.92;;;;;;;;;;4932068;29;20076;-88
2023/07/02 04:53:15;;;;;;;6.13;2.70;;;;;;;;;;4917523;29;20028;-89
2023/07/02 04:55:41;;;;;;;6.80;2.92;;;;;;;;;;4938427;28;20383;-89
2023/07/02 04:58:07;;;;;;;6.68;2.95;;;;;;;;;;4916871;29;20510;-89
2023/07/02 05:00:32;;;;;;;8.85;3.00;;;;;;;;;;4917028;29;20027;-89
2023/07/02 05:02:57;;;;;;;5.13;2.80;;;;;;;;;;4915726;29;20028;-89
2023/07/02 05:05:23;;;;;;;5.68;3.17;;;;;;;;;;4935354;29;20060;-90
2023/07/02 05:07:48;;;;;;;4.35;2.75;;;;;;;;;;4933310;29;20039;-90
2023/07/02 05:10:14;;;;;;;7.88;2.58;;;;;;;;;;4916320;29;20039;-90
2023/07/02 05:12:39;;;;;;;4.88;2.75;;;;;;;;;;4916263;29;20100;-89
2023/07/02 05:15:05;;;;;;;6.13;2.55;;;;;;;;;;4933810;29;20122;-89
2023/07/02 05:17:34;;;;;;;5.32;2.60;;;;;;;;;;4916845;29;20535;-89
2023/07/02 05:20:00;;;;;;;6.35;2.58;;;;;;;;;;4916071;29;20079;-89
2023/07/02 05:22:25;;;;;;;4.75;2.58;;;;;;;;;;4913591;29;20072;-90
2023/07/02 05:24:50;;;;;;;6.20;3.10;;;;;;;;;;4924202;29;20038;-90
2023/07/02 05:27:16;;;;;;;3.65;2.30;;;;;;;;;;4933356;29;20544;-87
2023/07/02 05:29:43;;;;;;;4.47;2.78;;;;;;;;;;4932688;29;20035;-88
2023/07/02 05:32:08;;;;;;;6.15;2.50;;;;;;;;;;4932731;29;20028;-87
2023/07/02 05:34:34;;;;;;;9.85;2.92;;;;;;;;;;4931768;29;20024;-86
2023/07/02 05:36:59;;;;;;;13.63;3.60;;;;;;;;;;4933390;29;20035;-87
2023/07/02 05:39:25;;;;;;;5.63;2.70;;;;;;;;;;4925669;29;20360;-87
2023/07/02 05:41:50;;;;;;;5.60;2.72;;;;;;;;;;4906681;29;20475;-86
2023/07/02 05:44:16;;;;;;;4.28;2.63;;;;;;;;;;4931730;29;20028;-86
2023/07/02 05:46:41;;;;;;;7.57;3.38;;;;;;;;;;4916386;29;20028;-87
2023/07/02 05:49:07;;;;;;;5.47;2.65;;;;;;;;;;4915962;29;20043;-87
2023/07/02 05:51:32;;;;;;;10.43;3.42;;;;;;;;;;4932238;29;20091;-86
2023/07/02 05:53:57;;;;;;;7.07;3.75;;;;;;;;;;4935054;29;20126;-87
2023/07/02 05:56:23;;;;;;;7.68;3.80;;;;;;;;;;4914222;29;20465;-87
2023/07/02 05:58:49;;;;;;;6.60;3.78;;;;;;;;;;4934432;29;20027;-87
2023/07/02 06:01:14;;;;;;;7.32;3.83;;;;;;;;;;4926739;29;20058;-87
2023/07/02 06:03:40;;;;;;;8.68;3.60;;;;;;;;;;4918470;29;20475;-86
2023/07/02 06:06:05;;;;;;;8.43;4.10;;;;;;;;;;4918979;29;20039;-87
2023/07/02 06:08:31;;;;;;;5.95;3.10;;;;;;;;;;4927261;29;20024;-86
2023/07/02 06:10:56;;;;;;;6.72;4.15;;;;;;;;;;4935803;29;20032;-86
2023/07/02 06:13:22;;;;;;;7.30;3.63;;;;;;;;;;4919350;29;20032;-86
2023/07/02 06:15:47;;;;;;;9.57;3.90;;;;;;;;;;4931324;29;20399;-86
2023/07/02 06:18:13;;;;;;;9.35;3.60;;;;;;;;;;4914996;29;20024;-87
2023/07/02 06:20:38;;;;;;;6.95;3.38;;;;;;;;;;4933929;29;20107;-87
2023/07/02 06:23:04;;;;;;;9.70;4.05;;;;;;;;;;4934259;29;20333;-87
2023/07/02 06:25:29;;;;;;;8.98;4.63;;;;;;;;;;4935980;29;20020;-87
2023/07/02 06:27:58;;;;;;;9.35;4.82;;;;;;;;;;4914800;29;20042;-86
2023/07/02 06:30:24;;;;;;;8.68;4.60;;;;;;;;;;4915817;29;20114;-86
2023/07/02 06:32:49;;;;;;;8.73;4.50;;;;;;;;;;4937185;29;20528;-87
2023/07/02 06:35:15;;;;;;;12.18;4.05;;;;;;;;;;4936856;29;20019;-88
2023/07/02 06:37:40;;;;;;;8.23;3.58;;;;;;;;;;4936754;29;20439;-86
2023/07/02 06:40:06;;;;;;;7.32;3.40;;;;;;;;;;4911562;29;20034;-87
2023/07/02 06:42:32;;;;;;;8.40;3.70;;;;;;;;;;4920377;29;20032;-87
2023/07/02 06:44:58;;;;;;;9.82;3.92;;;;;;;;;;4921918;29;20036;-87
2023/07/02 06:47:23;;;;;;;8.98;4.05;;;;;;;;;;4934935;29;20067;-87
2023/07/02 06:49:51;;;;;;;9.25;3.80;;;;;;;;;;4936460;29;20094;-87
2023/07/02 06:52:17;;;;;;;9.93;4.35;;;;;;;;;;4917360;29;20042;-87
2023/07/02 06:54:42;;;;;;;9.52;3.90;;;;;;;;;;4923463;29;20027;-87
2023/07/02 06:57:08;;;;;;;7.97;4.15;;;;;;;;;;4921650;29;20515;-87
2023/07/02 06:59:33;;;;;;;6.50;3.80;;;;;;;;;;4943061;29;20118;-87
2023/07/02 07:01:58;;;;;;;6.88;3.58;;;;;;;;;;4939522;29;20399;-87
2023/07/02 07:04:24;;;;;;;15.80;4.95;;;;;;;;;;4935580;29;20024;-86
2023/07/02 07:06:49;;;;;;;8.55;4.10;;;;;;;;;;4920648;29;20118;-87
2023/07/02 07:09:17;;;;;;;8.35;4.22;;;;;;;;;;4919403;29;20440;-87
2023/07/02 07:11:42;;;;;;;8.63;3.83;;;;;;;;;;4935308;29;20058;-87
2023/07/02 07:14:10;;;;;;;9.10;3.80;;;;;;;;;;4937429;29;20067;-87
2023/07/02 07:16:36;;;;;;;10.57;5.18;;;;;;;;;;4943016;29;20454;-87
2023/07/02 07:19:01;;;;;;;8.88;4.70;;;;;;;;;;4952341;28;20142;-87
2023/07/02 07:21:30;;;;;;;10.82;4.88;;;;;;;;;;4934912;29;20031;-86
2023/07/02 07:23:55;;;;;;;13.00;5.93;;;;;;;;;;4936236;29;20036;-88
2023/07/02 07:26:29;;;;;;;12.77;5.68;;;;;;;;;;4919397;29;20083;-86
2023/07/02 07:28:55;;;;;;;13.63;5.47;;;;;;;;;;4933774;29;20024;-86
2023/07/02 07:31:21;;;;;;;14.50;5.95;;;;;;;;;;4933152;29;20124;-86
2023/07/02 07:33:50;;;;;;;13.25;6.00;;;;;;;;;;4935377;29;20102;-87
2023/07/02 07:36:15;;;;;;;14.02;5.82;;;;;;;;;;4930624;29;20060;-87
2023/07/02 07:38:43;;;;;;;13.70;6.28;;;;;;;;;;4920214;28;20036;-85
2023/07/02 07:41:16;;;;;;;15.35;6.63;;;;;;;;;;4930329;29;20062;-86
2023/07/02 07:43:44;;;;;;;12.23;5.80;;;;;;;;;;4938484;29;20368;-87
2023/07/02 07:46:10;;;;;;;12.27;6.15;;;;;;;;;;4910579;29;20031;-86
2023/07/02 07:48:35;;;;;;;21.30;7.30;;;;;;;;;;4922738;29;20034;-86
2023/07/02 07:51:01;;;;;;;12.85;6.63;;;;;;;;;;4937219;29;20399;-87
2023/07/02 07:53:28;;;;;;;13.35;7.05;;;;;;;;;;4935547;29;20038;-87
2023/07/02 07:55:54;;;;;;;15.63;6.78;;;;;;;;;;4934767;29;20042;-87
2023/07/02 07:58:25;;;;;;;14.52;7.25;;;;;;;;;;4933676;29;20016;-86
2023/07/02 08:00:56;;;;;;;18.80;7.70;;;;;;;;;;4938409;29;20019;-88
2023/07/02 08:03:22;;;;;;;;;;;;;;;;;;4937150;29;20028;-88
2023/07/02 08:05:47;;;;;;;12.27;6.70;;;;;;;;;;4933908;29;20310;-87
2023/07/02 08:08:13;;;;;;;12.82;6.82;;;;;;;;;;4939045;29;20019;-86
2023/07/02 08:10:38;;;;;;;14.70;6.70;;;;;;;;;;4933661;29;20439;-88
2023/07/02 08:13:04;;;;;;;18.52;7.70;;;;;;;;;;4937696;29;20472;-86
2023/07/02 08:15:32;;;;;;;13.60;7.18;;;;;;;;;;4917276;29;20031;-86
2023/07/02 08:17:58;;;;;;;15.80;8.02;;;;;;;;;;4934052;29;20031;-86
2023/07/02 08:20:50;;;;;;;14.30;7.20;;;;;;;;;;4914427;29;20024;-86
2023/07/02 08:23:15;;;;;;;14.43;7.03;;;;;;;;;;4917578;29;20547;-87
2023/07/02 08:25:43;;;;;;;15.55;6.97;;;;;;;;;;4927443;28;20027;-87
2023/07/02 08:28:12;;;;;;;16.80;8.07;;;;;;;;;;4936507;29;20035;-87
2023/07/02 08:30:37;;;;;;;15.00;7.55;;;;;;;;;;4936947;29;20031;-86
2023/07/02 08:33:02;;;;;;;16.95;7.25;;;;;;;;;;4928124;29;20031;-86
2023/07/02 08:35:28;;;;;;;12.50;6.55;;;;;;;;;;4910706;29;20035;-86
2023/07/02 08:37:53;;;;;;;17.65;7.10;;;;;;;;;;4917813;29;20023;-86
2023/07/02 08:40:19;;;;;;;14.43;7.47;;;;;;;;;;4912698;29;20058;-86
2023/07/02 08:42:47;;;;;;;15.60;7.38;;;;;;;;;;4937791;29;20503;-86
2023/07/02 08:45:18;;;;;;;16.23;7.05;;;;;;;;;;4936749;29;20555;-87
2023/07/02 08:47:50;;;;;;;;;;;;;;;;;;4936855;29;20511;-86
2023/07/02 08:50:19;;;;;;;14.73;7.13;;;;;;;;;;4918767;29;19965;-87
2023/07/02 08:52:47;;;;;;;15.55;6.85;;;;;;;;;;4934104;29;20032;-87
2023/07/02 08:55:15;;;;;;;14.07;7.07;;;;;;;;;;4931964;29;20550;-87
2023/07/02 08:57:49;;;;;;;18.48;7.38;;;;;;;;;;4935997;29;20051;-86
2023/07/02 09:00:15;;;;;;;16.92;7.50;;;;;;;;;;4921686;29;20408;-86
2023/07/02 09:02:58;;;;;;;17.00;6.57;;;;;;;;;;4942170;29;20026;-86
2023/07/02 09:05:23;;;;;;;13.02;6.55;;;;;;;;;;4941797;29;20090;-86
2023/07/02 09:07:50;;;;;;;14.93;7.43;;;;;;;;;;4939525;29;20036;-87
2023/07/02 09:10:35;;;;;;;11.55;6.22;;;;;;;;;;4928900;29;20128;-87
2023/07/02 09:13:07;;;;;;;17.08;7.07;;;;;;;;;;4929454;29;20039;-86
2023/07/02 09:15:39;;;;;;;15.43;7.35;;;;;;;;;;4933894;29;20031;-87
2023/07/02 09:18:17;;;;;;;18.63;7.80;;;;;;;;;;4932368;29;20070;-87
2023/07/02 09:20:45;;;;;;;13.90;6.93;;;;;;;;;;4935000;29;20028;-86
2023/07/02 09:23:11;;;;;;;16.50;8.02;;;;;;;;;;4910260;29;20035;-87
2023/07/02 09:25:38;;;;;;;12.93;6.65;;;;;;;;;;4936357;29;20028;-86
2023/07/02 09:28:34;;;;;;;14.20;8.15;;;;;;;;;;4939465;29;20076;-87
2023/07/02 09:31:03;;;;;;;14.27;6.85;;;;;;;;;;4924787;29;20095;-86
2023/07/02 09:33:33;;;;;;;14.07;7.70;;;;;;;;;;4942439;29;20031;-86
2023/07/02 09:35:58;;;;;;;14.20;7.82;;;;;;;;;;4923021;29;20028;-87
2023/07/02 09:38:28;;;;;;;14.93;7.22;;;;;;;;;;4924478;29;20027;-87
2023/07/02 09:40:54;;;;;;;20.05;7.63;;;;;;;;;;4932882;23;20044;-79
2023/07/02 09:43:20;;;;;;;15.35;7.88;;;;;;;;;;4942352;29;20020;-79
2023/07/02 09:45:47;;;;;;;17.73;7.93;;;;;;;;;;4925693;29;20035;-78
2023/07/02 09:48:15;;;;;;;16.25;7.20;;;;;;;;;;4924689;29;20444;-80
2023/07/02 09:50:45;;;;;;;14.38;7.80;;;;;;;;;;4940656;29;20087;-79
2023/07/02 09:53:11;;;;;;;12.98;7.80;;;;;;;;;;4939663;29;20095;-79
2023/07/02 09:55:38;;;;;;;14.15;6.43;;;;;;;;;;4942164;29;20028;-79
2023/07/02 09:58:04;;;;;;;15.57;7.70;;;;;;;;;;4941535;29;20016;-79
2023/07/02 10:00:30;;;;;;;17.25;8.63;;;;;;;;;;4940929;29;20379;-78
2023/07/02 10:02:55;;;;;;;15.88;8.10;;;;;;;;;;4938869;29;20042;-81
2023/07/02 10:05:29;;;;;;;16.55;8.05;;;;;;;;;;4933298;29;20035;-78
2023/07/02 10:07:56;;;;;;;13.15;7.30;;;;;;;;;;4936973;29;20028;-78
2023/07/02 10:10:28;;;;;;;20.92;9.63;;;;;;;;;;4936073;29;20036;-79
2023/07/02 10:12:53;;;;;;;17.20;8.30;;;;;;;;;;4940060;29;20390;-78
2023/07/02 10:15:26;;;;;;;15.00;6.68;;;;;;;;;;4940042;29;20120;-78
2023/07/02 10:17:59;;;;;;;14.45;7.25;;;;;;;;;;4940421;29;20079;-79
2023/07/02 10:20:33;;;;;;;14.57;8.10;;;;;;;;;;4946425;29;20095;-78
2023/07/02 10:22:59;;;;;;;14.43;6.85;;;;;;;;;;4944694;29;20111;-79
2023/07/02 10:25:26;;;;;;;15.80;7.10;;;;;;;;;;4939545;29;20442;-79
2023/07/02 10:27:51;;;;;;;15.05;7.85;;;;;;;;;;4940206;29;20501;-79
2023/07/02 10:30:16;;;;;;;16.45;8.30;;;;;;;;;;4932072;29;20038;-79
2023/07/02 10:32:42;;;;;;;15.02;7.57;;;;;;;;;;4939039;29;20521;-79
2023/07/02 10:35:18;;;;;;;17.60;7.78;;;;;;;;;;4934408;29;20027;-79
2023/07/02 10:37:44;;;;;;;11.80;7.20;;;;;;;;;;4937402;29;20106;-79
2023/07/02 10:40:11;;;;;;;15.75;7.85;;;;;;;;;;4939240;29;20058;-79
2023/07/02 10:42:50;;;;;;;15.90;7.90;;;;;;;;;;4957171;29;20027;-79
2023/07/02 10:45:16;;;;;;;18.23;8.45;;;;;;;;;;4937508;29;20024;-79
2023/07/02 10:47:41;;;;;;;13.57;8.27;;;;;;;;;;4940214;29;20034;-79
2023/07/02 10:50:18;;;;;;;20.85;8.73;;;;;;;;;;4940847;29;20036;-80
2023/07/02 10:52:44;;;;;;;16.85;8.48;;;;;;;;;;4940691;29;20028;-79
2023/07/02 10:55:09;;;;;;;16.42;9.27;;;;;;;;;;4939730;29;20423;-79
2023/07/02 10:57:35;;;;;;;16.20;8.23;;;;;;;;;;4944019;29;20023;-79
2023/07/02 11:00:05;;;;;;;19.90;9.50;;;;;;;;;;4949858;29;20123;-79
2023/07/02 11:02:40;;;;;;;12.70;7.47;;;;;;;;;;4954879;29;20030;-79
2023/07/02 11:05:06;;;;;;;15.23;8.20;;;;;;;;;;4927776;29;20032;-79
2023/07/02 11:07:45;;;;;;;14.00;7.95;;;;;;;;;;4937854;29;20028;-79
2023/07/02 11:10:17;;;;;;;12.80;7.47;;;;;;;;;;4938032;29;20055;-79
2023/07/02 11:12:42;;;;;;;18.35;7.43;;;;;;;;;;4939795;29;20035;-79
2023/07/02 11:15:12;;;;;;;13.38;7.22;;;;;;;;;;4937394;29;20027;-78
2023/07/02 11:17:40;;;;;;;17.30;7.75;;;;;;;;;;4933321;29;20032;-79
2023/07/02 11:20:11;;;;;;;12.85;7.43;;;;;;;;;;4935233;29;20024;-79
2023/07/02 11:22:38;;;;;;;16.65;8.35;;;;;;;;;;4935925;29;20020;-79
2023/07/02 11:25:17;;;;;;;14.88;8.45;;;;;;;;;;4932526;29;20036;-79
2023/07/02 11:27:43;;;;;;;12.90;7.68;;;;;;;;;;4930450;29;20027;-79
2023/07/02 11:30:09;;;;;;;18.08;8.52;;;;;;;;;;4929755;29;20036;-79
2023/07/02 11:32:53;;;;;;;14.63;7.15;;;;;;;;;;4931410;29;20035;-79
2023/07/02 11:35:19;;;;;;;13.52;7.07;;;;;;;;;;4935752;29;20020;-79
2023/07/02 11:37:45;;;;;;;16.10;7.80;;;;;;;;;;4916545;29;20034;-79
2023/07/02 11:40:12;;;;;;;12.93;7.28;;;;;;;;;;4945053;29;20031;-79
2023/07/02 11:42:37;;;;;;;15.70;7.40;;;;;;;;;;4938479;29;20027;-79
2023/07/02 11:45:03;;;;;;;13.63;7.65;;;;;;;;;;4945496;29;20087;-79
2023/07/02 11:47:29;;;;;;;15.05;7.55;;;;;;;;;;4938002;29;20035;-79
2023/07/02 11:49:59;;;;;;;16.50;8.30;;;;;;;;;;4937930;29;20490;-79
2023/07/02 11:52:24;;;;;;;16.27;8.02;;;;;;;;;;4937565;29;20050;-79
2023/07/02 11:54:50;;;;;;;16.92;8.07;;;;;;;;;;4937739;29;20035;-79
2023/07/02 11:57:15;;;;;;;16.55;8.25;;;;;;;;;;4938133;29;20051;-78
2023/07/02 11:59:41;;;;;;;18.20;8.13;;;;;;;;;;4937731;29;20024;-78
2023/07/02 12:02:07;;;;;;;14.45;8.07;;;;;;;;;;4936648;29;20038;-79
2023/07/02 12:04:32;;;;;;;18.75;8.52;;;;;;;;;;4936591;29;20028;-79
2023/07/02 12:06:57;;;;;;;15.73;8.20;;;;;;;;;;4914481;29;20028;-78
2023/07/02 12:09:23;;;;;;;16.48;7.43;;;;;;;;;;4933296;29;20043;-79
2023/07/02 12:11:48;;;;;;;14.82;7.53;;;;;;;;;;4934327;29;20031;-78
2023/07/02 12:14:13;;;;;;;18.05;7.85;;;;;;;;;;4935978;29;20114;-79
2023/07/02 12:16:39;;;;;;;14.18;7.78;;;;;;;;;;4935213;29;20058;-79
2023/07/02 12:19:04;;;;;;;12.45;6.70;;;;;;;;;;4930818;29;20520;-79
2023/07/02 12:21:29;;;;;;;13.63;7.50;;;;;;;;;;4937085;29;20112;-79
2023/07/02 12:23:55;;;;;;;14.40;7.30;;;;;;;;;;4938885;29;20046;-78
2023/07/02 12:26:20;;;;;;;17.83;8.15;;;;;;;;;;4936309;29;20455;-79
2023/07/02 12:28:45;;;;;;;14.52;7.72;;;;;;;;;;4937004;29;20471;-78
2023/07/02 12:31:12;;;;;;;13.63;7.68;;;;;;;;;;4939853;28;20444;-79
2023/07/02 12:33:38;;;;;;;13.80;7.07;;;;;;;;;;4927343;29;20058;-79
2023/07/02 12:36:03;;;;;;;18.17;9.68;;;;;;;;;;4926202;29;20110;-78
2023/07/02 12:38:29;;;;;;;18.40;8.60;;;;;;;;;;4939205;29;20016;-79
2023/07/02 12:40:54;;;;;;;18.85;8.70;;;;;;;;;;4933555;29;20107;-78
2023/07/02 12:43:20;;;;;;;17.13;8.88;;;;;;;;;;4935613;29;20038;-79
2023/07/02 12:45:45;;;;;;;16.92;8.73;;;;;;;;;;4917805;29;20031;-79
2023/07/02 12:48:10;;;;;;;15.52;8.27;;;;;;;;;;4944491;29;20019;-79
2023/07/02 12:50:37;;;;;;;16.25;8.07;;;;;;;;;;4949032;29;20083;-79
2023/07/02 12:53:03;;;;;;;16.38;7.85;;;;;;;;;;4925877;29;20091;-79
2023/07/02 12:55:28;;;;;;;14.38;8.23;;;;;;;;;;4940842;29;20031;-79
2023/07/02 12:57:53;;;;;;;14.80;9.07;;;;;;;;;;4948858;28;20038;-79
2023/07/02 13:00:19;;;;;;;16.30;8.50;;;;;;;;;;4940269;29;20544;-79
2023/07/02 13:02:46;;;;;;;15.95;7.70;;;;;;;;;;4933126;29;20036;-79
2023/07/02 13:05:11;;;;;;;16.77;8.23;;;;;;;;;;4949213;29;20035;-78
2023/07/02 13:07:37;;;;;;;16.15;7.57;;;;;;;;;;4942061;29;20024;-80
2023/07/02 13:10:02;;;;;;;16.90;8.40;;;;;;;;;;4936352;29;20039;-78
2023/07/02 13:12:28;;;;;;;14.65;7.95;;;;;;;;;;4936094;29;20035;-78
2023/07/02 13:14:53;;;;;;;18.80;8.70;;;;;;;;;;4935492;29;20062;-78
2023/07/02 13:17:18;;;;;;;15.95;8.23;;;;;;;;;;4935326;29;20043;-78
2023/07/02 13:19:44;;;;;;;15.88;8.10;;;;;;;;;;4940327;29;20041;-78
2023/07/02 13:22:10;;;;;;;12.27;7.35;;;;;;;;;;4940869;29;20038;-79
2023/07/02 13:24:36;;;;;;;13.10;7.88;;;;;;;;;;4946508;29;20035;-78
2023/07/02 13:27:05;;;;;;;17.70;8.65;;;;;;;;;;4941924;29;20383;-78
2023/07/02 13:29:31;;;;;;;16.90;8.75;;;;;;;;;;4933267;29;20489;-78
2023/07/02 13:31:56;;;;;;;14.68;8.00;;;;;;;;;;4940796;29;20046;-78
2023/07/02 13:34:21;;;;;;;15.68;8.32;;;;;;;;;;4917478;29;20024;-79
2023/07/02 13:36:47;;;;;;;15.38;8.25;;;;;;;;;;4920477;29;20048;-79
2023/07/02 13:39:12;;;;;;;15.63;8.10;;;;;;;;;;4935764;29;20402;-81
2023/07/02 13:41:37;;;;;;;16.13;7.47;;;;;;;;;;4937136;29;20035;-81
2023/07/02 13:44:03;;;;;;;14.93;7.50;;;;;;;;;;4921316;29;20034;-77
2023/07/02 13:46:28;;;;;;;16.42;9.02;;;;;;;;;;4929331;29;20031;-79
2023/07/02 13:48:53;;;;;;;15.75;8.57;;;;;;;;;;4924823;29;20098;-77
2023/07/02 13:51:19;;;;;;;15.90;8.60;;;;;;;;;;4925486;29;20036;-78
2023/07/02 13:53:44;;;;;;;14.82;7.78;;;;;;;;;;4933326;29;20055;-78
2023/07/02 13:56:10;;;;;;;14.52;8.45;;;;;;;;;;4930368;29;20042;-78
2023/07/02 13:58:45;;;;;;;16.30;8.15;;;;;;;;;;4937173;29;20024;-78
2023/07/02 14:01:10;;;;;;;17.38;7.95;;;;;;;;;;4935635;29;20120;-77
2023/07/02 14:03:36;;;;;;;13.48;7.97;;;;;;;;;;4940966;29;20023;-78
2023/07/02 14:06:01;;;;;;;15.05;7.63;;;;;;;;;;4938870;29;20106;-77
2023/07/02 14:08:26;;;;;;;14.10;7.82;;;;;;;;;;4946557;29;20031;-78
2023/07/02 14:10:52;;;;;;;15.85;7.07;;;;;;;;;;4943734;29;20051;-79
2023/07/02 14:13:17;;;;;;;15.63;7.35;;;;;;;;;;4937948;29;20078;-78
2023/07/02 14:15:42;;;;;;;12.90;7.18;;;;;;;;;;4946206;29;20038;-79
2023/07/02 14:18:08;;;;;;;13.68;7.43;;;;;;;;;;4940622;29;20051;-79
2023/07/02 14:20:33;;;;;;;13.73;7.72;;;;;;;;;;4939296;29;20031;-79
2023/07/02 14:22:58;;;;;;;14.70;8.20;;;;;;;;;;4936836;29;20039;-79
2023/07/02 14:25:24;;;;;;;11.70;6.70;;;;;;;;;;4936582;29;20110;-79
2023/07/02 14:27:49;;;;;;;17.70;8.27;;;;;;;;;;4937220;29;20035;-79
2023/07/02 14:30:14;;;;;;;13.50;8.23;;;;;;;;;;4936607;29;20027;-80
2023/07/02 14:32:40;;;;;;;11.15;6.65;;;;;;;;;;4935138;29;20028;-78